Time;durP1;ratioP1;P1;durP2;ratioP2;P2;SDS_P1;SDS_P2;PMS_P1;PMS_P2;Temp;Humidity;BMP_temperature;BMP_pressure;BME280_temperature;BME280_humidity;BME280_pressure;Samples;Min_cycle;Max_cycle;Signal;HPM_P1;HPM_P2
2021/11/21 00:01:00;;;;;;;25.97;10.00;;;4.60;96.40;;;;;;5081071;28;20220;-87
2021/11/21 00:03:27;;;;;;;13.57;9.77;;;4.80;96.80;;;;;;5072953;28;20238;-87
2021/11/21 00:05:54;;;;;;;16.73;9.33;;;4.80;96.00;;;;;;5077162;28;20228;-87
2021/11/21 00:08:22;;;;;;;15.93;9.17;;;5.00;96.60;;;;;;5063147;28;20639;-85
2021/11/21 00:10:50;;;;;;;15.50;9.13;;;5.10;95.90;;;;;;5066197;28;20230;-85
2021/11/21 00:13:17;;;;;;;14.30;8.30;;;5.10;95.10;;;;;;5076596;28;20304;-86
2021/11/21 00:15:44;;;;;;;60.10;9.40;;;5.20;95.70;;;;;;5073980;28;20251;-87
2021/11/21 00:18:11;;;;;;;76.17;10.90;;;5.00;94.90;;;;;;5076689;28;20672;-85
2021/11/21 00:20:38;;;;;;;50.07;9.67;;;4.90;95.00;;;;;;5069917;28;20233;-87
2021/11/21 00:23:05;;;;;;;10.23;8.30;;;4.80;95.60;;;;;;5070324;28;20208;-88
2021/11/21 00:25:34;;;;;;;12.60;8.77;;;4.80;95.90;;;;;;5068904;28;20237;-86
2021/11/21 00:28:01;;;;;;;13.83;8.80;;;4.80;96.30;;;;;;5069325;28;20609;-87
2021/11/21 00:30:30;;;;;;;32.07;9.13;;;5.10;95.60;;;;;;5063365;28;20225;-87
2021/11/21 00:32:57;;;;;;;22.47;8.83;;;5.00;95.10;;;;;;5082828;28;20268;-86
2021/11/21 00:35:24;;;;;;;11.27;7.73;;;4.90;95.10;;;;;;5072754;28;20225;-87
2021/11/21 00:37:51;;;;;;;17.87;8.20;;;5.00;95.80;;;;;;5066323;28;20206;-87
2021/11/21 00:40:18;;;;;;;20.63;7.87;;;5.00;95.60;;;;;;5064231;28;20595;-88
2021/11/21 00:42:46;;;;;;;9.00;7.27;;;4.80;95.00;;;;;;5066585;28;20671;-87
2021/11/21 00:45:13;;;;;;;19.07;8.10;;;4.90;96.10;;;;;;5069854;28;20231;-87
2021/11/21 00:47:41;;;;;;;14.23;7.50;;;4.80;95.00;;;;;;5064545;28;20665;-87
2021/11/21 00:50:11;;;;;;;10.53;7.77;;;4.70;95.00;;;;;;5061876;28;20229;-87
2021/11/21 00:52:38;;;;;;;10.53;7.13;;;4.60;95.00;;;;;;5066366;28;20233;-86
2021/11/21 00:55:11;;;;;;;15.80;7.80;;;4.60;95.40;;;;;;5072809;28;20227;-87
2021/11/21 00:57:38;;;;;;;11.20;7.67;;;4.70;95.10;;;;;;5070158;28;20291;-87
2021/11/21 01:00:10;;;;;;;44.80;8.57;;;4.70;95.10;;;;;;5072290;28;20213;-87
2021/11/21 01:02:38;;;;;;;63.37;8.87;;;4.70;95.00;;;;;;5068456;28;20537;-87
2021/11/21 01:05:07;;;;;;;17.43;7.30;;;4.40;94.70;;;;;;5072987;28;20229;-87
2021/11/21 01:07:37;;;;;;;55.57;8.50;;;4.30;96.20;;;;;;5065012;28;20275;-87
2021/11/21 01:10:06;;;;;;;29.50;7.77;;;4.30;94.90;;;;;;5065976;28;20224;-87
2021/11/21 01:12:33;;;;;;;22.23;6.93;;;4.20;95.70;;;;;;5062239;28;20690;-87
2021/11/21 01:15:00;;;;;;;34.10;7.27;;;4.20;96.00;;;;;;5063754;28;20446;-87
2021/11/21 01:17:28;;;;;;;12.70;7.27;;;4.10;95.60;;;;;;5073176;28;20572;-87
2021/11/21 01:19:59;;;;;;;23.87;7.20;;;4.10;96.80;;;;;;5063846;28;21542;-87
2021/11/21 01:22:28;;;;;;;18.07;8.53;;;4.00;95.80;;;;;;5067475;28;20204;-87
2021/11/21 01:24:55;;;;;;;9.20;7.03;;;3.90;96.10;;;;;;5076076;28;20218;-86
2021/11/21 01:27:22;;;;;;;22.13;7.03;;;4.00;96.80;;;;;;5063793;28;20230;-87
2021/11/21 01:29:49;;;;;;;39.40;7.43;;;3.90;96.30;;;;;;5069126;28;20719;-87
2021/11/21 01:32:16;;;;;;;24.83;6.77;;;3.90;96.60;;;;;;5070003;28;20205;-87
2021/11/21 01:34:44;;;;;;;7.90;5.80;;;4.10;96.40;;;;;;5074176;28;20235;-87
2021/11/21 01:37:11;;;;;;;36.70;6.73;;;4.20;96.20;;;;;;5070864;28;20696;-87
2021/11/21 01:39:39;;;;;;;7.60;5.70;;;4.20;95.60;;;;;;5064840;28;20225;-87
2021/11/21 01:42:06;;;;;;;16.33;6.30;;;4.10;95.70;;;;;;5075809;28;20215;-87
2021/11/21 01:44:33;;;;;;;13.30;5.77;;;4.00;94.90;;;;;;5067722;28;20229;-87
2021/11/21 01:47:00;;;;;;;9.40;5.43;;;4.00;95.90;;;;;;5085092;28;20582;-87
2021/11/21 01:49:27;;;;;;;20.10;5.87;;;4.00;94.90;;;;;;5070753;28;20232;-87
2021/11/21 01:51:55;;;;;;;8.97;5.20;;;3.80;94.80;;;;;;5084239;28;20201;-87
2021/11/21 01:54:22;;;;;;;20.57;5.57;;;3.80;95.70;;;;;;5067313;28;20228;-86
2021/11/21 01:56:49;;;;;;;5.17;4.20;;;3.60;95.20;;;;;;5072865;28;20227;-87
2021/11/21 01:59:17;;;;;;;5.20;4.70;;;3.90;95.60;;;;;;5071600;28;20212;-87
2021/11/21 02:01:44;;;;;;;5.57;4.17;;;4.10;95.60;;;;;;5084284;28;20198;-87
2021/11/21 02:04:12;;;;;;;5.80;4.53;;;4.00;94.30;;;;;;5075286;28;20205;-87
2021/11/21 02:06:39;;;;;;;10.83;4.67;;;4.10;93.80;;;;;;5069419;28;20210;-86
2021/11/21 02:09:07;;;;;;;5.83;4.33;;;3.80;93.40;;;;;;5072625;28;20228;-86
2021/11/21 02:11:34;;;;;;;6.60;4.97;;;3.80;94.80;;;;;;5071054;28;20211;-86
2021/11/21 02:14:01;;;;;;;5.87;4.97;;;3.60;94.80;;;;;;5071564;28;20567;-86
2021/11/21 02:16:31;;;;;;;30.07;6.10;;;3.50;95.20;;;;;;5072990;28;20219;-86
2021/11/21 02:18:59;;;;;;;7.50;4.80;;;3.20;95.00;;;;;;5068259;28;20212;-87
2021/11/21 02:21:28;;;;;;;17.73;6.10;;;3.40;96.30;;;;;;5063555;28;20597;-85
2021/11/21 02:23:55;;;;;;;33.97;6.50;;;3.30;96.00;;;;;;5068755;28;20205;-87
2021/11/21 02:26:22;;;;;;;12.83;5.80;;;3.20;96.40;;;;;;5074935;28;20282;-86
2021/11/21 02:28:52;;;;;;;53.50;6.67;;;3.20;96.50;;;;;;5045526;28;20225;-87
2021/11/21 02:31:21;;;;;;;33.73;6.07;;;3.20;96.30;;;;;;5063632;28;20225;-86
2021/11/21 02:33:50;;;;;;;59.13;7.20;;;3.40;96.70;;;;;;5074706;28;20575;-86
2021/11/21 02:36:19;;;;;;;21.17;6.00;;;3.20;96.30;;;;;;5074345;28;20716;-86
2021/11/21 02:38:48;;;;;;;8.53;5.50;;;3.10;96.70;;;;;;5073689;28;20205;-87
2021/11/21 02:41:15;;;;;;;10.33;5.63;;;3.50;97.70;;;;;;5069776;28;20616;-87
2021/11/21 02:43:44;;;;;;;10.63;5.40;;;3.50;96.80;;;;;;5070432;28;20228;-86
2021/11/21 02:46:12;;;;;;;35.00;6.07;;;3.60;96.70;;;;;;5066913;28;20681;-86
2021/11/21 02:48:39;;;;;;;9.13;4.93;;;3.60;96.00;;;;;;5074173;28;20628;-86
2021/11/21 02:51:09;;;;;;;15.67;5.10;;;3.80;96.30;;;;;;5074038;28;20220;-86
2021/11/21 02:53:38;;;;;;;49.13;6.50;;;3.90;95.50;;;;;;5068962;28;20233;-86
2021/11/21 02:56:09;;;;;;;53.83;6.23;;;3.70;94.80;;;;;;5070110;28;20571;-87
2021/11/21 02:58:36;;;;;;;7.13;4.93;;;3.50;94.80;;;;;;5064851;28;20526;-86
2021/11/21 03:01:06;;;;;;;9.17;4.47;;;3.40;95.60;;;;;;5072842;28;20217;-87
2021/11/21 03:03:33;;;;;;;16.87;5.23;;;3.60;96.80;;;;;;5062284;28;20214;-87
2021/11/21 03:06:00;;;;;;;7.03;5.00;;;3.50;95.50;;;;;;5072924;28;20657;-87
2021/11/21 03:08:27;;;;;;;8.40;4.53;;;3.50;95.40;;;;;;5057784;28;20653;-86
2021/11/21 03:10:55;;;;;;;10.83;5.30;;;3.60;95.50;;;;;;5064130;28;20221;-87
2021/11/21 03:13:23;;;;;;;17.80;5.10;;;3.60;95.10;;;;;;5081038;28;20213;-86
2021/11/21 03:15:50;;;;;;;6.67;5.17;;;3.70;95.90;;;;;;5073672;28;20728;-86
2021/11/21 03:18:17;;;;;;;8.73;5.07;;;3.60;95.40;;;;;;5072813;28;20212;-86
2021/11/21 03:20:44;;;;;;;5.53;4.67;;;3.50;95.20;;;;;;5048719;28;20239;-86
2021/11/21 03:23:11;;;;;;;5.80;4.70;;;3.60;95.20;;;;;;5063136;28;20198;-86
2021/11/21 03:25:38;;;;;;;6.80;4.90;;;3.50;94.80;;;;;;5066530;28;20217;-86
2021/11/21 03:28:06;;;;;;;9.43;4.13;;;3.50;95.50;;;;;;5064362;28;20218;-87
2021/11/21 03:30:35;;;;;;;25.93;4.67;;;3.50;95.80;;;;;;5078851;28;20615;-86
2021/11/21 03:33:02;;;;;;;4.63;3.60;;;3.40;94.70;;;;;;5061576;28;20197;-86
2021/11/21 03:35:29;;;;;;;4.20;3.77;;;3.50;95.60;;;;;;5080953;28;20715;-86
2021/11/21 03:37:56;;;;;;;6.50;3.80;;;3.70;95.50;;;;;;5069796;28;20223;-87
2021/11/21 03:40:23;;;;;;;4.37;3.87;;;3.70;94.30;;;;;;5063477;28;20230;-86
2021/11/21 03:42:50;;;;;;;6.33;3.80;;;3.60;94.20;;;;;;5060700;28;20285;-86
2021/11/21 03:45:17;;;;;;;4.47;4.07;;;3.40;93.90;;;;;;5062386;28;20236;-86
2021/11/21 03:47:47;;;;;;;8.43;3.80;;;3.30;94.70;;;;;;5075846;28;20196;-86
2021/11/21 03:50:16;;;;;;;9.03;3.53;;;3.30;94.70;;;;;;5074131;28;20224;-85
2021/11/21 03:52:44;;;;;;;7.13;3.50;;;3.20;94.70;;;;;;5065912;28;20205;-86
2021/11/21 03:55:13;;;;;;;5.23;3.23;;;3.10;95.30;;;;;;5066751;28;20232;-84
2021/11/21 03:57:40;;;;;;;6.67;3.43;;;3.00;94.90;;;;;;5065206;28;20212;-84
2021/11/21 04:00:12;;;;;;;4.53;3.67;;;2.80;94.60;;;;;;5074217;28;20229;-84
2021/11/21 04:02:39;;;;;;;3.73;3.37;;;2.80;95.80;;;;;;5068559;28;20206;-84
2021/11/21 04:05:08;;;;;;;26.50;3.97;;;2.80;95.50;;;;;;5070546;28;20228;-84
2021/11/21 04:07:35;;;;;;;15.87;4.20;;;2.60;95.30;;;;;;5074484;28;20583;-86
2021/11/21 04:10:02;;;;;;;32.13;4.50;;;2.50;95.90;;;;;;5065382;28;20735;-85
2021/11/21 04:12:29;;;;;;;16.80;4.30;;;2.30;96.00;;;;;;5066193;28;20312;-86
2021/11/21 04:14:55;;;;;;;15.27;4.13;;;2.30;96.60;;;;;;5063868;28;20669;-84
2021/11/21 04:17:23;;;;;;;8.67;4.10;;;2.20;96.80;;;;;;5073555;28;20208;-84
2021/11/21 04:19:50;;;;;;;7.57;3.77;;;2.20;97.00;;;;;;5067975;28;20228;-84
2021/11/21 04:22:18;;;;;;;4.67;4.00;;;2.10;97.10;;;;;;5066642;28;20209;-84
2021/11/21 04:24:45;;;;;;;15.33;11.67;;;2.20;97.20;;;;;;5068680;28;20224;-85
2021/11/21 04:27:15;;;;;;;10.17;7.10;;;2.40;98.20;;;;;;5079593;28;20287;-86
2021/11/21 04:29:42;;;;;;;11.57;8.70;;;2.60;97.20;;;;;;5075325;28;20232;-86
2021/11/21 04:32:09;;;;;;;10.30;8.07;;;2.80;96.10;;;;;;5072726;28;20201;-84
2021/11/21 04:34:36;;;;;;;14.53;10.73;;;2.80;95.40;;;;;;5067776;28;20646;-84
2021/11/21 04:37:04;;;;;;;6.20;5.23;;;2.60;95.30;;;;;;5079510;28;20209;-84
2021/11/21 04:39:32;;;;;;;6.60;5.87;;;2.60;95.60;;;;;;5066587;28;20282;-84
2021/11/21 04:41:59;;;;;;;7.10;5.47;;;2.40;95.70;;;;;;5068828;28;20197;-84
2021/11/21 04:44:26;;;;;;;19.67;14.23;;;2.40;96.30;;;;;;5076264;28;20233;-84
2021/11/21 04:46:53;;;;;;;40.83;27.87;;;2.60;96.50;;;;;;5063833;28;20210;-84
2021/11/21 04:49:20;;;;;;;4.73;4.23;;;2.90;96.90;;;;;;5078451;28;20227;-83
2021/11/21 04:51:47;;;;;;;17.67;12.70;;;2.90;95.30;;;;;;5084702;28;20205;-84
2021/11/21 04:54:17;;;;;;;19.07;12.80;;;2.80;95.50;;;;;;5084111;28;20204;-85
2021/11/21 04:56:47;;;;;;;22.40;16.00;;;3.00;96.20;;;;;;5078143;28;20201;-85
2021/11/21 04:59:14;;;;;;;5.13;4.63;;;3.00;96.20;;;;;;5070105;28;20209;-84
2021/11/21 05:01:42;;;;;;;4.87;4.30;;;2.90;95.40;;;;;;5068419;28;20206;-85
2021/11/21 05:04:09;;;;;;;5.77;5.13;;;2.80;95.70;;;;;;5069751;28;20217;-85
2021/11/21 05:06:36;;;;;;;10.93;8.30;;;2.70;96.30;;;;;;5086439;28;20205;-85
2021/11/21 05:09:04;;;;;;;18.83;13.60;;;2.80;97.10;;;;;;5074823;28;20315;-84
2021/11/21 05:11:31;;;;;;;11.73;8.97;;;3.00;97.30;;;;;;5081309;28;20226;-85
2021/11/21 05:13:59;;;;;;;10.37;8.00;;;3.10;96.30;;;;;;5078550;28;20197;-84
2021/11/21 05:16:26;;;;;;;7.93;5.93;;;3.10;95.80;;;;;;5075410;28;20217;-84
2021/11/21 05:18:53;;;;;;;4.97;4.33;;;3.00;95.70;;;;;;5081415;28;20205;-84
2021/11/21 05:21:21;;;;;;;8.77;6.97;;;3.00;95.50;;;;;;5044274;28;20228;-85
2021/11/21 05:23:48;;;;;;;14.43;11.07;;;2.80;95.90;;;;;;5068246;28;20206;-85
2021/11/21 05:26:15;;;;;;;10.00;7.87;;;2.80;97.10;;;;;;5061528;28;20601;-85
2021/11/21 05:28:42;;;;;;;6.77;5.10;;;3.20;96.70;;;;;;5066426;28;20225;-85
2021/11/21 05:31:11;;;;;;;4.90;4.40;;;3.20;95.40;;;;;;5058974;28;20225;-85
2021/11/21 05:33:38;;;;;;;7.73;6.27;;;3.00;95.40;;;;;;5062404;28;20205;-85
2021/11/21 05:36:05;;;;;;;4.97;4.47;;;3.00;95.90;;;;;;5067670;28;20637;-84
2021/11/21 05:38:32;;;;;;;5.07;4.47;;;3.10;95.70;;;;;;5066510;28;20273;-84
2021/11/21 05:40:59;;;;;;;7.63;6.40;;;3.00;95.60;;;;;;5064633;28;20214;-84
2021/11/21 05:43:26;;;;;;;5.77;5.03;;;3.00;96.20;;;;;;5072343;28;20225;-84
2021/11/21 05:45:54;;;;;;;8.27;4.67;;;3.20;95.90;;;;;;5058439;28;20596;-86
2021/11/21 05:48:23;;;;;;;10.93;7.30;;;3.20;95.70;;;;;;5075770;28;20648;-86
2021/11/21 05:50:49;;;;;;;11.63;6.57;;;3.40;96.30;;;;;;5068525;28;20220;-86
2021/11/21 05:53:16;;;;;;;12.40;5.30;;;3.60;96.00;;;;;;5065304;28;20213;-87
2021/11/21 05:55:43;;;;;;;9.33;5.60;;;3.50;95.30;;;;;;5073602;28;20226;-86
2021/11/21 05:58:10;;;;;;;13.13;6.60;;;3.60;95.90;;;;;;5076088;28;20211;-86
2021/11/21 06:00:38;;;;;;;12.10;5.60;;;3.70;95.60;;;;;;5055675;28;20333;-86
2021/11/21 06:03:05;;;;;;;9.47;6.13;;;3.70;95.20;;;;;;5064909;28;20254;-86
2021/11/21 06:05:33;;;;;;;8.50;6.70;;;3.60;95.60;;;;;;5073330;28;20243;-86
2021/11/21 06:08:05;;;;;;;9.53;6.40;;;3.80;96.40;;;;;;5064608;28;20199;-85
2021/11/21 06:10:32;;;;;;;8.20;6.13;;;4.00;95.70;;;;;;5065926;28;20252;-85
2021/11/21 06:12:59;;;;;;;11.20;4.83;;;4.20;95.20;;;;;;5073280;28;20316;-86
2021/11/21 06:15:26;;;;;;;11.30;5.00;;;4.30;94.50;;;;;;5068117;28;20237;-85
2021/11/21 06:17:53;;;;;;;58.83;6.63;;;3.90;93.60;;;;;;5070653;28;20206;-85
2021/11/21 06:20:20;;;;;;;12.03;4.63;;;3.60;94.10;;;;;;5066358;28;20229;-86
2021/11/21 06:22:48;;;;;;;15.30;5.30;;;3.40;94.70;;;;;;5063223;28;20209;-85
2021/11/21 06:25:15;;;;;;;14.73;5.30;;;3.30;95.40;;;;;;5063915;28;20243;-85
2021/11/21 06:27:43;;;;;;;16.43;6.60;;;3.30;96.30;;;;;;5061842;28;20209;-86
2021/11/21 06:30:11;;;;;;;11.20;5.50;;;3.50;97.40;;;;;;5073079;28;20240;-87
2021/11/21 06:32:38;;;;;;;15.97;5.37;;;3.70;95.90;;;;;;5059742;28;20509;-85
2021/11/21 06:35:05;;;;;;;25.17;5.23;;;3.70;95.60;;;;;;5067348;28;20217;-86
2021/11/21 06:37:32;;;;;;;12.03;5.70;;;3.60;95.10;;;;;;5066601;28;20220;-86
2021/11/21 06:40:00;;;;;;;9.03;5.80;;;3.70;96.30;;;;;;5068551;28;20220;-86
2021/11/21 06:42:27;;;;;;;9.87;4.90;;;3.70;96.00;;;;;;5066249;28;20202;-85
2021/11/21 06:44:54;;;;;;;15.37;4.57;;;3.60;95.70;;;;;;5061793;28;20226;-85
2021/11/21 06:47:22;;;;;;;11.40;5.13;;;3.60;94.80;;;;;;5069926;28;20201;-86
2021/11/21 06:49:49;;;;;;;15.03;4.90;;;3.60;95.30;;;;;;5067466;28;20311;-85
2021/11/21 06:52:18;;;;;;;8.00;5.10;;;3.40;95.20;;;;;;5071625;28;20209;-85
2021/11/21 06:54:46;;;;;;;34.50;5.07;;;3.60;96.30;;;;;;5071090;28;20230;-85
2021/11/21 06:57:15;;;;;;;8.60;4.53;;;3.70;94.80;;;;;;5065985;28;20213;-85
2021/11/21 06:59:42;;;;;;;14.27;4.60;;;3.70;95.50;;;;;;5065506;28;20246;-86
2021/11/21 07:02:09;;;;;;;11.60;4.77;;;3.50;94.80;;;;;;5062659;28;20209;-85
2021/11/21 07:04:36;;;;;;;9.77;4.13;;;3.50;95.20;;;;;;5071314;28;20220;-86
2021/11/21 07:07:08;;;;;;;4.83;4.20;;;3.70;95.50;;;;;;5064841;28;20238;-86
2021/11/21 07:09:36;;;;;;;4.27;3.77;;;3.80;94.80;;;;;;5065139;28;20332;-86
2021/11/21 07:12:03;;;;;;;12.47;4.10;;;3.80;94.80;;;;;;5061832;28;20656;-86
2021/11/21 07:14:32;;;;;;;4.50;4.10;;;3.80;93.40;;;;;;5060139;28;20355;-86
2021/11/21 07:16:59;;;;;;;6.20;3.87;;;3.80;94.80;;;;;;5063871;28;20238;-86
2021/11/21 07:19:26;;;;;;;14.23;4.13;;;3.80;94.80;;;;;;5075954;28;20223;-86
2021/11/21 07:21:52;;;;;;;6.97;3.83;;;3.90;94.40;;;;;;5065546;28;20205;-86
2021/11/21 07:24:19;;;;;;;15.53;4.40;;;4.00;93.90;;;;;;5065773;28;20197;-86
2021/11/21 07:26:46;;;;;;;3.93;3.50;;;4.00;93.60;;;;;;5065759;28;20197;-86
2021/11/21 07:29:13;;;;;;;5.87;4.00;;;3.80;93.60;;;;;;5064590;28;20429;-86
2021/11/21 07:31:44;;;;;;;9.03;4.07;;;3.90;93.80;;;;;;5065741;28;20200;-85
2021/11/21 07:34:11;;;;;;;7.93;4.50;;;4.00;93.70;;;;;;5059244;28;20201;-86
2021/11/21 07:36:38;;;;;;;8.17;4.40;;;4.00;94.10;;;;;;5063731;28;20613;-86
2021/11/21 07:39:04;;;;;;;9.40;4.33;;;3.90;93.60;;;;;;5062266;28;20197;-85
2021/11/21 07:41:31;;;;;;;7.23;4.53;;;3.80;93.50;;;;;;5057662;28;20255;-87
2021/11/21 07:43:58;;;;;;;6.70;4.33;;;4.00;94.90;;;;;;5064273;28;20319;-85
2021/11/21 07:46:26;;;;;;;4.20;3.80;;;4.10;94.90;;;;;;5059076;28;20233;-85
2021/11/21 07:48:55;;;;;;;5.17;3.97;;;4.50;93.90;;;;;;5065211;28;20259;-85
2021/11/21 07:51:22;;;;;;;4.33;3.93;;;4.50;92.30;;;;;;5069297;28;20301;-85
2021/11/21 07:53:49;;;;;;;5.37;4.43;;;4.40;93.50;;;;;;5060300;28;20653;-85
2021/11/21 07:56:16;;;;;;;5.33;4.50;;;4.40;93.40;;;;;;5063368;28;20683;-87
2021/11/21 07:58:43;;;;;;;5.77;4.33;;;4.30;92.70;;;;;;5058726;28;20209;-85
2021/11/21 08:01:10;;;;;;;7.90;4.83;;;4.30;94.60;;;;;;5062799;28;20220;-87
2021/11/21 08:03:37;;;;;;;5.60;4.40;;;4.50;93.50;;;;;;5063351;28;20216;-87
2021/11/21 08:06:06;;;;;;;5.60;4.80;;;4.70;93.30;;;;;;5072338;28;20227;-88
2021/11/21 08:08:33;;;;;;;5.93;4.77;;;4.80;92.90;;;;;;5062704;28;20201;-87
2021/11/21 08:11:00;;;;;;;4.97;4.47;;;5.00;92.80;;;;;;5063859;28;20223;-88
2021/11/21 08:13:27;;;;;;;5.47;4.90;;;5.10;92.10;;;;;;5064731;28;20200;-87
2021/11/21 08:15:54;;;;;;;4.80;4.40;;;5.10;91.50;;;;;;5067968;28;20225;-87
2021/11/21 08:18:21;;;;;;;5.13;4.20;;;5.30;91.80;;;;;;5068548;28;20205;-88
2021/11/21 08:20:48;;;;;;;4.40;4.00;;;5.50;91.50;;;;;;5081424;28;20821;-89
2021/11/21 08:23:17;;;;;;;4.90;4.40;;;5.70;90.90;;;;;;5054451;28;20210;-89
2021/11/21 08:25:44;;;;;;;4.90;4.40;;;5.90;89.60;;;;;;5078806;28;20221;-89
2021/11/21 08:28:11;;;;;;;6.20;5.37;;;5.80;90.30;;;;;;5066665;28;20255;-90
2021/11/21 08:30:38;;;;;;;5.03;4.53;;;5.90;89.50;;;;;;5071657;28;20234;-89
2021/11/21 08:33:05;;;;;;;5.90;4.83;;;6.00;89.60;;;;;;5064346;28;20197;-89
2021/11/21 08:35:32;;;;;;;5.73;5.03;;;6.10;89.70;;;;;;5065548;28;20221;-90
2021/11/21 08:37:59;;;;;;;4.97;4.47;;;6.10;89.30;;;;;;5079062;28;20201;-89
2021/11/21 08:40:29;;;;;;;5.30;4.80;;;6.10;89.70;;;;;;5077473;28;20223;-89
2021/11/21 08:42:56;;;;;;;6.27;5.30;;;5.90;89.50;;;;;;5063359;28;20205;-89
2021/11/21 08:45:24;;;;;;;7.97;4.97;;;5.80;89.50;;;;;;5071849;28;20274;-89
2021/11/21 08:47:52;;;;;;;5.67;5.03;;;5.60;89.40;;;;;;5075282;28;20194;-90
2021/11/21 08:50:19;;;;;;;5.37;4.30;;;5.40;90.10;;;;;;5078668;28;20233;-89
2021/11/21 08:52:46;;;;;;;4.93;4.33;;;5.70;91.10;;;;;;5067268;28;20686;-89
2021/11/21 08:55:14;;;;;;;4.87;4.40;;;6.60;89.00;;;;;;5061878;28;20706;-88
2021/11/21 08:57:42;;;;;;;5.53;4.28;;;7.60;80.40;;;;;;5061323;28;20628;-90
2021/11/21 09:00:16;;;;;;;4.60;4.15;;;8.80;73.70;;;;;;5064344;28;20231;-88
2021/11/21 09:02:43;;;;;;;4.13;3.72;;;10.00;58.60;;;;;;5068794;28;20198;-90
2021/11/21 09:05:10;;;;;;;4.43;4.00;;;11.20;50.30;;;;;;5069960;28;20378;-89
2021/11/21 09:07:39;;;;;;;4.43;4.03;;;12.20;41.50;;;;;;5071606;28;20209;-89
2021/11/21 09:10:08;;;;;;;4.80;4.40;;;13.10;37.70;;;;;;5069659;28;20221;-91
2021/11/21 09:12:35;;;;;;;3.80;3.50;;;14.00;34.90;;;;;;5059457;28;20207;-90
2021/11/21 09:15:04;;;;;;;4.13;3.83;;;14.90;31.10;;;;;;5059553;28;20589;-87
2021/11/21 09:17:31;;;;;;;4.25;3.78;;;15.40;28.20;;;;;;5069579;28;20202;-87
2021/11/21 09:19:58;;;;;;;3.92;3.63;;;15.90;28.60;;;;;;5072414;28;20759;-87
2021/11/21 09:22:25;;;;;;;3.75;3.45;;;16.00;28.70;;;;;;5080656;28;20197;-87
2021/11/21 09:24:52;;;;;;;3.65;3.35;;;16.80;27.10;;;;;;5076066;28;20220;-86
2021/11/21 09:27:19;;;;;;;3.90;3.60;;;16.70;26.50;;;;;;5065358;28;20250;-88
2021/11/21 09:29:46;;;;;;;5.10;3.88;;;16.80;25.60;;;;;;5074666;28;20308;-88
2021/11/21 09:32:14;;;;;;;3.95;3.65;;;17.20;25.20;;;;;;5070483;28;20198;-88
2021/11/21 09:34:42;;;;;;;4.20;3.88;;;17.60;23.80;;;;;;5069007;28;20222;-87
2021/11/21 09:37:09;;;;;;;5.68;3.70;;;18.00;23.70;;;;;;5073618;28;20640;-86
2021/11/21 09:39:37;;;;;;;4.05;3.75;;;18.30;22.00;;;;;;5069666;28;20225;-86
2021/11/21 09:42:04;;;;;;;4.60;4.20;;;17.10;23.50;;;;;;5064147;28;20474;-88
2021/11/21 09:44:32;;;;;;;4.32;3.92;;;17.00;24.30;;;;;;5066285;28;20233;-87
2021/11/21 09:46:59;;;;;;;4.28;3.97;;;17.40;23.50;;;;;;5064874;28;20205;-91
2021/11/21 09:49:28;;;;;;;4.25;3.85;;;17.70;23.70;;;;;;5063797;28;20245;-87
2021/11/21 09:51:56;;;;;;;4.10;3.80;;;17.70;22.80;;;;;;5067268;28;20204;-86
2021/11/21 09:54:26;;;;;;;4.13;3.83;;;17.10;24.10;;;;;;5060268;28;20205;-85
2021/11/21 09:56:53;;;;;;;5.50;3.92;;;16.40;24.70;;;;;;5066655;28;20201;-87
2021/11/21 09:59:56;;;;;;;4.68;3.58;;;16.20;24.20;;;;;;5061090;28;20289;-84
2021/11/21 10:02:25;;;;;;;4.25;3.85;;;15.50;26.30;;;;;;5061132;28;20197;-85
2021/11/21 10:04:53;;;;;;;4.57;4.13;;;15.80;25.70;;;;;;5062885;28;20218;-85
2021/11/21 10:07:26;;;;;;;4.32;3.92;;;15.70;27.30;;;;;;5063330;28;20205;-84
2021/11/21 10:09:54;;;;;;;5.35;4.18;;;15.00;27.80;;;;;;5063919;28;20234;-87
2021/11/21 10:12:21;;;;;;;4.43;4.05;;;14.60;27.50;;;;;;5064039;28;20251;-85
2021/11/21 10:14:59;;;;;;;5.07;4.00;;;14.40;27.30;;;;;;5064605;28;20223;-86
2021/11/21 10:17:27;;;;;;;4.95;4.10;;;14.10;27.10;;;;;;5064268;28;20616;-88
2021/11/21 10:20:20;;;;;;;4.13;3.83;;;14.90;27.70;;;;;;5062126;28;20590;-86
2021/11/21 10:23:06;;;;;;;4.40;4.00;;;14.80;27.70;;;;;;5053988;28;20189;-87
2021/11/21 10:25:47;;;;;;;4.30;3.90;;;14.90;27.00;;;;;;5053933;28;20362;-90
2021/11/21 10:28:17;;;;;;;4.47;4.07;;;15.30;25.90;;;;;;5063588;28;20683;-87
2021/11/21 10:31:09;;;;;;;4.75;3.70;;;15.10;25.40;;;;;;5072467;28;20218;-86
2021/11/21 10:33:38;;;;;;;4.40;4.00;;;14.30;27.30;;;;;;5067316;28;20216;-88
2021/11/21 10:36:10;;;;;;;4.07;3.70;;;14.50;27.50;;;;;;5073689;28;20221;-88
2021/11/21 10:38:43;;;;;;;4.07;3.78;;;14.10;28.00;;;;;;5072902;28;20612;-88
2021/11/21 10:41:20;;;;;;;4.70;4.20;;;14.30;27.30;;;;;;5068837;28;20256;-88
2021/11/21 10:43:57;;;;;;;4.28;3.35;;;14.60;27.50;;;;;;5076122;28;20252;-87
2021/11/21 10:46:37;;;;;;;6.15;4.10;;;14.70;27.60;;;;;;5072161;28;20225;-88
2021/11/21 10:49:28;;;;;;;7.10;4.38;;;14.70;27.60;;;;;;5071624;28;20200;-88
2021/11/21 10:52:13;;;;;;;4.78;4.38;;;14.30;27.30;;;;;;5063046;28;20229;-88
2021/11/21 10:54:46;;;;;;;5.28;4.03;;;14.30;27.70;;;;;;5074745;28;20230;-88
2021/11/21 10:57:15;;;;;;;6.18;4.47;;;14.20;28.10;;;;;;5073715;28;20201;-90
2021/11/21 10:59:54;;;;;;;5.20;4.70;;;13.30;30.10;;;;;;5069559;28;20229;-88
2021/11/21 11:02:26;;;;;;;5.50;4.10;;;12.20;33.60;;;;;;5071647;28;20199;-89
2021/11/21 11:05:06;;;;;;;5.15;4.50;;;11.60;36.60;;;;;;5066541;28;20227;-91
2021/11/21 11:07:37;;;;;;;4.57;4.18;;;11.30;39.00;;;;;;5075472;28;20209;-89
2021/11/21 11:10:11;;;;;;;5.78;4.53;;;10.90;41.20;;;;;;5068349;28;20249;-90
2021/11/21 11:12:39;;;;;;;4.78;4.22;;;10.70;43.70;;;;;;5071365;28;20202;-88
2021/11/21 11:15:08;;;;;;;6.13;5.07;;;10.60;47.30;;;;;;5073701;28;20226;-88
2021/11/21 11:17:36;;;;;;;6.72;4.53;;;10.30;47.10;;;;;;5077497;28;20204;-88
2021/11/21 11:20:06;;;;;;;6.43;5.00;;;10.10;49.60;;;;;;5071527;28;20229;-89
2021/11/21 11:22:34;;;;;;;5.60;5.00;;;10.00;50.90;;;;;;5067150;28;20208;-89
2021/11/21 11:25:05;;;;;;;6.40;5.28;;;9.70;55.70;;;;;;5061905;28;20243;-89
2021/11/21 11:27:46;;;;;;;6.60;5.68;;;9.60;56.20;;;;;;5044958;28;20235;-89
2021/11/21 11:30:14;;;;;;;6.80;5.03;;;9.40;59.00;;;;;;5063438;28;20286;-89
2021/11/21 11:32:42;;;;;;;6.03;5.43;;;9.40;58.80;;;;;;5069642;28;20633;-90
2021/11/21 11:35:31;;;;;;;5.88;5.28;;;9.50;59.00;;;;;;5069804;28;20213;-88
2021/11/21 11:38:13;;;;;;;6.50;5.28;;;9.60;58.00;;;;;;5064900;28;20197;-90
2021/11/21 11:40:50;;;;;;;5.63;4.88;;;9.70;59.70;;;;;;5064283;28;20283;-89
2021/11/21 11:43:47;;;;;;;5.72;5.22;;;9.50;58.80;;;;;;5068167;28;20286;-90
2021/11/21 11:46:29;;;;;;;6.53;5.45;;;9.50;58.90;;;;;;5067589;28;20683;-89
2021/11/21 11:48:58;;;;;;;6.07;5.43;;;9.50;60.60;;;;;;5067869;28;20208;-90
2021/11/21 11:51:49;;;;;;;8.20;6.70;;;9.50;59.80;;;;;;5062758;28;20308;-91
2021/11/21 11:54:26;;;;;;;8.25;6.55;;;9.50;63.10;;;;;;5066226;28;20225;-89
2021/11/21 11:56:56;;;;;;;7.50;6.35;;;9.50;63.50;;;;;;5068070;28;20196;-89
2021/11/21 11:59:36;;;;;;;7.32;6.20;;;9.60;65.20;;;;;;5063900;28;20197;-89
2021/11/21 12:02:05;;;;;;;7.00;6.30;;;9.50;64.90;;;;;;5059892;28;20196;-89
2021/11/21 12:05:06;;;;;;;8.32;7.10;;;9.40;64.80;;;;;;5064364;28;20224;-88
2021/11/21 12:07:38;;;;;;;9.38;7.40;;;9.40;69.00;;;;;;4977084;28;20508;-89
2021/11/21 12:10:14;;;;;;;9.47;8.00;;;9.50;67.80;;;;;;4979476;28;20252;-89
2021/11/21 12:12:58;;;;;;;10.52;8.32;;;9.40;67.90;;;;;;5033663;28;20424;-88
2021/11/21 12:15:30;;;;;;;10.15;8.80;;;9.10;70.00;;;;;;5078727;28;20231;-86
2021/11/21 12:18:10;;;;;;;20.77;16.20;;;9.00;69.00;;;;;;5085023;28;20531;-87
2021/11/21 12:20:56;;;;;;;26.58;20.73;;;8.50;75.10;;;;;;5078336;28;20197;-90
2021/11/21 12:23:55;;;;;;;15.20;11.60;;;8.60;76.30;;;;;;5082139;28;20193;-88
2021/11/21 12:26:27;;;;;;;10.10;9.00;;;8.80;75.20;;;;;;5091094;28;20227;-90
2021/11/21 12:29:05;;;;;;;10.68;9.07;;;8.70;73.60;;;;;;5084627;28;20198;-86
2021/11/21 12:31:37;;;;;;;10.50;9.20;;;8.40;74.10;;;;;;5075623;28;20225;-89
2021/11/21 12:34:30;;;;;;;10.88;9.27;;;8.60;75.00;;;;;;5087039;28;20209;-88
2021/11/21 12:37:17;;;;;;;11.93;9.43;;;8.80;73.70;;;;;;5078512;28;20300;-88
2021/11/21 12:39:48;;;;;;;13.55;9.50;;;8.50;73.40;;;;;;5069916;28;20577;-89
2021/11/21 12:42:18;;;;;;;12.25;9.77;;;8.20;76.20;;;;;;5072660;28;20220;-87
2021/11/21 12:44:46;;;;;;;12.32;10.02;;;8.60;76.10;;;;;;5057989;28;20225;-89
2021/11/21 12:47:14;;;;;;;12.85;9.60;;;8.50;73.40;;;;;;5064658;28;20683;-90
2021/11/21 12:49:43;;;;;;;12.27;9.68;;;8.30;75.80;;;;;;5077979;28;20224;-90
2021/11/21 12:52:13;;;;;;;14.15;10.00;;;8.20;76.10;;;;;;5076558;28;20222;-88
2021/11/21 12:58:04;;;;;;;18.92;10.60;;;8.00;80.40;;;;;;5077902;28;20188;-89
2021/11/21 13:00:34;;;;;;;15.45;9.80;;;8.00;77.90;;;;;;5090835;28;20233;-88
2021/11/21 13:03:06;;;;;;;13.38;10.05;;;8.30;76.30;;;;;;5078571;28;20246;-89
2021/11/21 13:05:37;;;;;;;12.45;9.60;;;8.40;75.00;;;;;;5076279;28;20332;-88